Time;durP1;ratioP1;P1;durP2;ratioP2;P2;SDS_P1;SDS_P2;PMS_P1;PMS_P2;Temp;Humidity;BMP_temperature;BMP_pressure;BME280_temperature;BME280_humidity;BME280_pressure;Samples;Min_cycle;Max_cycle;Signal;HPM_P1;HPM_P2
2022/10/01 00:01:03;;;;;;;16.70;15.05;;;11.10;99.90;;;;;;5077277;28;20494;-38
2022/10/01 00:03:30;;;;;;;17.23;15.43;;;11.10;99.90;;;;;;5061067;28;20044;-39
2022/10/01 00:06:00;;;;;;;17.95;16.08;;;11.10;99.90;;;;;;5076264;28;20060;-51
2022/10/01 00:08:28;;;;;;;17.45;15.65;;;11.10;99.90;;;;;;5058687;28;20040;-50
2022/10/01 00:10:54;;;;;;;18.98;16.63;;;11.00;99.90;;;;;;5059813;28;20110;-49
2022/10/01 00:13:21;;;;;;;19.08;17.23;;;11.00;99.90;;;;;;5057895;28;20059;-50
2022/10/01 00:15:48;;;;;;;18.42;16.63;;;11.00;99.90;;;;;;5059384;28;20044;-50
2022/10/01 00:18:14;;;;;;;17.73;15.93;;;11.00;99.90;;;;;;5078210;28;20088;-48
2022/10/01 00:20:42;;;;;;;18.80;17.00;;;11.00;99.90;;;;;;5010134;28;20048;-49
2022/10/01 00:23:13;;;;;;;17.30;15.50;;;11.00;99.90;;;;;;5078006;28;20047;-50
2022/10/01 00:25:40;;;;;;;20.77;17.60;;;11.00;99.90;;;;;;5075128;28;20424;-50
2022/10/01 00:28:06;;;;;;;20.58;17.92;;;10.90;99.90;;;;;;5060059;28;20071;-52
2022/10/01 00:30:33;;;;;;;17.98;16.27;;;10.90;99.90;;;;;;5057597;28;20075;-52
2022/10/01 00:32:59;;;;;;;18.75;16.83;;;11.00;99.90;;;;;;5074770;28;20102;-49
2022/10/01 00:35:25;;;;;;;18.88;17.08;;;10.90;99.90;;;;;;5043514;28;20040;-39
2022/10/01 00:37:51;;;;;;;18.70;16.80;;;10.90;99.90;;;;;;5043252;28;20051;-39
2022/10/01 00:40:20;;;;;;;18.48;16.58;;;10.90;99.90;;;;;;5063049;28;20039;-41
2022/10/01 00:42:46;;;;;;;17.27;15.55;;;10.90;99.90;;;;;;5076689;28;20072;-39
2022/10/01 00:45:17;;;;;;;18.25;16.35;;;10.90;99.90;;;;;;5043675;28;20047;-39
2022/10/01 00:47:53;;;;;;;19.05;16.80;;;10.90;99.90;;;;;;5076738;28;20055;-39
2022/10/01 00:50:29;;;;;;;21.23;19.02;;;10.90;99.90;;;;;;5028687;28;20113;-38
2022/10/01 00:53:03;;;;;;;20.08;18.08;;;10.80;99.90;;;;;;5074449;28;20093;-39
2022/10/01 00:55:35;;;;;;;21.35;18.58;;;10.80;99.90;;;;;;5074122;28;20074;-38
2022/10/01 00:58:02;;;;;;;21.05;18.83;;;10.80;99.90;;;;;;5071161;28;20457;-49
2022/10/01 01:00:30;;;;;;;19.35;16.98;;;10.80;99.90;;;;;;5054682;28;20087;-51
2022/10/01 01:02:56;;;;;;;20.20;18.20;;;10.80;99.90;;;;;;5074865;28;20129;-54
2022/10/01 01:05:23;;;;;;;20.52;18.38;;;10.80;99.90;;;;;;5021110;28;20781;-53
2022/10/01 01:07:52;;;;;;;21.40;18.52;;;10.80;99.90;;;;;;5077169;28;20047;-52
2022/10/01 01:10:36;;;;;;;20.70;18.67;;;10.80;99.90;;;;;;5063239;28;20082;-52
2022/10/01 01:13:29;;;;;;;20.45;18.13;;;10.80;99.90;;;;;;5079263;28;20051;-50
2022/10/01 01:16:10;;;;;;;20.92;18.88;;;10.80;99.90;;;;;;5055861;28;20039;-52
2022/10/01 01:19:02;;;;;;;24.05;21.20;;;10.80;99.90;;;;;;5079527;28;20036;-51
2022/10/01 01:21:41;;;;;;;22.88;20.50;;;10.70;99.90;;;;;;5076206;28;20040;-52
2022/10/01 01:24:24;;;;;;;21.33;18.88;;;10.70;99.90;;;;;;5045467;28;20082;-49
2022/10/01 01:27:06;;;;;;;25.90;18.88;;;10.70;99.90;;;;;;5078880;28;20055;-52
2022/10/01 01:29:49;;;;;;;24.52;20.85;;;10.70;99.90;;;;;;5080682;28;20043;-52
2022/10/01 01:32:25;;;;;;;22.50;20.20;;;10.70;99.90;;;;;;5070024;28;20047;-49
2022/10/01 01:34:53;;;;;;;21.30;18.17;;;10.60;99.90;;;;;;5081302;28;20853;-38
2022/10/01 01:37:25;;;;;;;23.35;20.95;;;10.60;99.90;;;;;;5077463;28;20043;-37
2022/10/01 01:39:55;;;;;;;23.75;21.42;;;10.60;99.90;;;;;;5056749;28;20060;-38
2022/10/01 01:42:31;;;;;;;25.33;22.60;;;10.70;99.90;;;;;;5048360;28;20055;-38
2022/10/01 01:45:02;;;;;;;25.52;20.83;;;10.70;99.90;;;;;;5059744;28;20044;-38
2022/10/01 01:47:31;;;;;;;25.05;22.20;;;10.60;99.90;;;;;;5053177;28;20743;-38
2022/10/01 01:50:01;;;;;;;24.77;21.60;;;10.60;99.90;;;;;;5085439;28;20056;-43
2022/10/01 01:52:28;;;;;;;26.17;22.90;;;10.60;99.90;;;;;;5063015;28;20043;-38
2022/10/01 01:54:56;;;;;;;24.63;21.58;;;10.60;99.90;;;;;;5062333;28;20133;-38
2022/10/01 01:57:23;;;;;;;22.02;19.80;;;10.60;99.90;;;;;;5079631;28;20048;-39
2022/10/01 01:59:49;;;;;;;25.05;22.55;;;10.60;99.90;;;;;;5063398;28;20059;-38
2022/10/01 02:02:24;;;;;;;26.00;23.17;;;10.60;99.90;;;;;;5035470;28;20044;-38
2022/10/01 02:04:58;;;;;;;26.15;23.35;;;10.60;99.90;;;;;;5073873;28;20052;-38
2022/10/01 02:07:41;;;;;;;25.65;23.20;;;10.60;99.90;;;;;;5050095;28;20044;-39
2022/10/01 02:10:20;;;;;;;24.00;21.63;;;10.60;99.90;;;;;;5067267;28;20055;-38
2022/10/01 02:13:07;;;;;;;22.95;20.75;;;10.60;99.90;;;;;;5080267;28;20051;-38
2022/10/01 02:16:03;;;;;;;21.83;19.70;;;10.60;99.90;;;;;;5063617;28;20043;-38
2022/10/01 02:18:54;;;;;;;21.98;19.67;;;10.60;99.90;;;;;;5040920;28;20127;-54
2022/10/01 02:21:27;;;;;;;20.00;17.92;;;10.70;99.90;;;;;;5051237;28;20174;-52
2022/10/01 02:24:08;;;;;;;20.80;18.63;;;10.70;99.90;;;;;;5075996;28;20132;-52
2022/10/01 02:26:36;;;;;;;24.37;21.70;;;10.60;99.90;;;;;;5057638;28;20080;-38
2022/10/01 02:29:07;;;;;;;24.02;21.55;;;10.70;99.90;;;;;;5046447;28;20308;-38
2022/10/01 02:31:34;;;;;;;21.13;19.10;;;10.70;99.90;;;;;;5041018;28;20804;-39
2022/10/01 02:34:03;;;;;;;20.77;18.88;;;10.70;99.90;;;;;;5058703;28;20044;-38
2022/10/01 02:36:31;;;;;;;22.25;20.10;;;10.70;99.90;;;;;;5058033;28;20157;-40
2022/10/01 02:39:00;;;;;;;21.58;19.58;;;10.70;99.90;;;;;;5031085;28;20043;-38
2022/10/01 02:41:33;;;;;;;21.70;19.40;;;10.70;99.90;;;;;;5075716;28;20080;-38
2022/10/01 02:44:22;;;;;;;20.45;18.35;;;10.70;99.90;;;;;;5053763;28;20044;-39
2022/10/01 02:46:53;;;;;;;21.63;19.33;;;10.70;99.90;;;;;;5078498;28;20229;-39
2022/10/01 02:49:19;;;;;;;19.85;17.75;;;10.80;99.90;;;;;;5058303;28;20048;-39
2022/10/01 02:52:26;;;;;;;17.77;15.90;;;10.70;99.90;;;;;;5070098;28;20080;-39
2022/10/01 02:55:10;;;;;;;16.75;15.00;;;10.80;99.90;;;;;;5018253;28;20048;-39
2022/10/01 02:57:37;;;;;;;17.38;15.65;;;10.80;99.90;;;;;;5071984;28;20049;-53
2022/10/01 03:00:10;;;;;;;15.50;13.98;;;10.90;99.90;;;;;;5047408;28;20056;-55
2022/10/01 03:02:36;;;;;;;16.42;14.65;;;10.90;99.90;;;;;;5071747;28;20059;-52
2022/10/01 03:05:03;;;;;;;17.65;15.70;;;10.80;99.90;;;;;;5078929;28;20078;-52
2022/10/01 03:07:31;;;;;;;16.67;15.15;;;10.90;99.90;;;;;;5045019;28;20040;-39
2022/10/01 03:09:57;;;;;;;14.43;12.93;;;10.90;99.90;;;;;;5043777;28;20054;-40
2022/10/01 03:12:23;;;;;;;15.02;12.43;;;10.90;99.90;;;;;;5055991;28;20051;-39
2022/10/01 03:14:52;;;;;;;13.20;11.90;;;10.90;99.90;;;;;;5041786;28;20048;-40
2022/10/01 03:17:18;;;;;;;12.27;10.95;;;10.90;99.90;;;;;;5046149;28;20040;-39
2022/10/01 03:19:45;;;;;;;13.00;11.70;;;10.90;99.90;;;;;;5044941;28;20048;-50
2022/10/01 03:22:13;;;;;;;12.38;11.18;;;10.90;99.90;;;;;;5071113;28;20056;-54
2022/10/01 03:24:39;;;;;;;11.85;10.65;;;10.90;99.90;;;;;;5079710;28;20812;-53
2022/10/01 03:27:06;;;;;;;9.68;8.75;;;10.90;99.90;;;;;;5072479;28;20101;-52
2022/10/01 03:29:32;;;;;;;13.30;9.90;;;11.00;99.90;;;;;;5076442;28;20044;-39
2022/10/01 03:31:58;;;;;;;10.82;9.38;;;11.00;99.90;;;;;;5072984;28;20063;-39
2022/10/01 03:34:24;;;;;;;11.82;9.60;;;10.90;99.90;;;;;;5076721;28;20048;-38
2022/10/01 03:36:53;;;;;;;10.80;9.70;;;11.00;99.90;;;;;;5043324;28;20077;-39
2022/10/01 03:39:19;;;;;;;10.27;8.95;;;10.90;99.90;;;;;;5060617;28;20051;-52
2022/10/01 03:41:45;;;;;;;10.93;9.85;;;11.00;99.90;;;;;;5062301;28;20055;-48
2022/10/01 03:44:11;;;;;;;10.32;9.23;;;11.00;99.90;;;;;;5078658;28;20090;-52
2022/10/01 03:46:37;;;;;;;9.85;8.82;;;10.90;99.90;;;;;;5060523;28;20160;-52
2022/10/01 03:49:03;;;;;;;9.05;8.15;;;10.90;99.90;;;;;;5061159;28;20134;-50
2022/10/01 03:51:30;;;;;;;9.77;8.77;;;10.90;99.90;;;;;;5078980;28;20378;-50
2022/10/01 03:53:57;;;;;;;10.43;8.68;;;10.90;99.90;;;;;;5053070;28;20044;-38
2022/10/01 03:56:24;;;;;;;9.40;8.50;;;10.90;99.90;;;;;;5059205;28;20052;-52
2022/10/01 03:58:51;;;;;;;8.73;7.88;;;10.90;99.90;;;;;;5034140;28;20044;-51
2022/10/01 04:01:17;;;;;;;8.85;7.13;;;11.00;99.90;;;;;;5088164;28;20040;-50
2022/10/01 04:03:43;;;;;;;8.73;7.78;;;10.90;99.90;;;;;;5059895;28;20497;-49
2022/10/01 04:06:09;;;;;;;9.15;7.40;;;11.00;99.90;;;;;;5039662;28;20066;-53
2022/10/01 04:08:37;;;;;;;9.05;8.15;;;11.00;99.90;;;;;;5075621;28;20437;-40
2022/10/01 04:11:05;;;;;;;10.10;8.65;;;11.00;99.90;;;;;;5057451;28;20056;-40
2022/10/01 04:13:31;;;;;;;9.35;8.40;;;11.00;99.90;;;;;;5071142;28;20040;-53
2022/10/01 04:15:57;;;;;;;10.10;9.10;;;11.00;99.90;;;;;;5056842;28;20048;-40
2022/10/01 04:18:23;;;;;;;8.45;7.65;;;11.00;99.90;;;;;;5042733;28;20048;-39
2022/10/01 04:20:50;;;;;;;8.48;7.65;;;11.00;99.90;;;;;;5060910;28;20155;-40
2022/10/01 04:23:16;;;;;;;8.85;7.95;;;11.10;99.90;;;;;;5073857;28;20105;-49
2022/10/01 04:25:42;;;;;;;9.05;7.97;;;11.00;99.90;;;;;;5057235;28;20181;-49
2022/10/01 04:28:11;;;;;;;8.63;7.82;;;11.00;99.90;;;;;;5059523;28;20861;-40
2022/10/01 04:30:40;;;;;;;9.05;8.15;;;11.00;99.90;;;;;;5079892;28;20044;-50
2022/10/01 04:33:08;;;;;;;9.73;7.93;;;11.10;99.90;;;;;;5057725;28;20074;-53
2022/10/01 04:35:34;;;;;;;8.55;7.53;;;11.10;99.90;;;;;;5071450;28;20103;-39
2022/10/01 04:38:11;;;;;;;8.82;7.47;;;11.10;99.90;;;;;;5041159;28;20079;-52
2022/10/01 04:40:37;;;;;;;7.90;7.15;;;11.10;99.90;;;;;;5043232;28;20052;-39
2022/10/01 04:43:08;;;;;;;7.93;7.13;;;11.10;99.90;;;;;;5042859;28;20425;-50
2022/10/01 04:45:38;;;;;;;8.55;7.45;;;11.10;99.90;;;;;;5069223;28;20127;-39
2022/10/01 04:48:04;;;;;;;8.57;7.75;;;11.10;99.90;;;;;;5079152;28;20154;-39
2022/10/01 04:50:31;;;;;;;7.93;7.15;;;11.10;99.90;;;;;;5050830;28;20095;-53
2022/10/01 04:52:57;;;;;;;8.90;7.40;;;11.10;99.90;;;;;;5068272;28;20051;-51
2022/10/01 04:55:23;;;;;;;8.20;7.40;;;11.10;99.90;;;;;;5099042;27;20044;-51
2022/10/01 04:57:49;;;;;;;8.85;7.88;;;11.20;99.90;;;;;;5061898;28;20048;-52
2022/10/01 05:00:20;;;;;;;8.40;7.45;;;11.20;99.90;;;;;;5089356;28;20052;-40
2022/10/01 05:02:48;;;;;;;7.63;6.82;;;11.20;99.90;;;;;;5061878;28;20055;-39
2022/10/01 05:05:15;;;;;;;8.63;6.90;;;11.20;99.90;;;;;;5061871;28;20052;-39
2022/10/01 05:07:41;;;;;;;9.40;7.93;;;11.30;99.90;;;;;;5064373;28;20079;-39
2022/10/01 05:10:11;;;;;;;8.77;7.90;;;11.20;99.90;;;;;;5061278;28;20076;-39
2022/10/01 05:12:37;;;;;;;7.95;7.22;;;11.30;99.90;;;;;;5072899;28;20044;-39
2022/10/01 05:15:04;;;;;;;8.68;7.78;;;11.30;99.90;;;;;;5042905;28;20050;-40
2022/10/01 05:17:32;;;;;;;8.70;7.78;;;11.30;99.90;;;;;;5059255;28;20050;-39
2022/10/01 05:19:59;;;;;;;9.60;8.70;;;11.30;99.90;;;;;;5042069;28;20052;-39
2022/10/01 05:22:26;;;;;;;9.43;8.43;;;11.40;99.90;;;;;;5060281;28;20035;-40
2022/10/01 05:24:52;;;;;;;9.35;8.50;;;11.40;99.90;;;;;;5041108;28;20044;-40
2022/10/01 05:27:18;;;;;;;9.68;8.75;;;11.50;99.90;;;;;;5061861;28;22051;-39
2022/10/01 05:29:45;;;;;;;9.45;8.55;;;11.50;99.90;;;;;;5078634;28;20482;-41
2022/10/01 05:32:11;;;;;;;9.10;8.18;;;11.50;99.90;;;;;;5059665;28;20086;-42
2022/10/01 05:34:38;;;;;;;9.68;8.77;;;11.60;99.90;;;;;;5059556;28;20056;-40
2022/10/01 05:37:05;;;;;;;9.98;8.95;;;11.60;99.90;;;;;;5023480;28;20071;-41
2022/10/01 05:39:32;;;;;;;9.48;8.57;;;11.60;99.90;;;;;;5076529;28;20086;-39
2022/10/01 05:41:58;;;;;;;9.88;8.88;;;11.60;99.90;;;;;;5078142;28;20177;-39
2022/10/01 05:44:25;;;;;;;9.95;9.05;;;11.70;99.90;;;;;;5062145;28;20058;-53
2022/10/01 05:46:52;;;;;;;11.23;10.18;;;11.70;99.90;;;;;;5080007;28;20059;-50
2022/10/01 05:49:19;;;;;;;11.25;10.07;;;11.70;99.90;;;;;;5060437;28;20040;-56
2022/10/01 05:51:45;;;;;;;12.70;9.98;;;11.80;99.90;;;;;;5062923;28;20047;-53
2022/10/01 05:54:12;;;;;;;11.85;10.75;;;11.80;99.90;;;;;;5059850;28;20513;-42
2022/10/01 05:56:38;;;;;;;11.82;10.52;;;11.80;99.90;;;;;;5028869;28;20811;-40
2022/10/01 05:59:05;;;;;;;12.77;11.57;;;11.80;99.90;;;;;;5077463;28;20101;-40
2022/10/01 06:01:31;;;;;;;12.88;11.77;;;11.80;99.90;;;;;;5062232;28;20044;-40
2022/10/01 06:03:57;;;;;;;14.85;11.95;;;11.80;99.90;;;;;;5045803;28;20044;-53
2022/10/01 06:06:26;;;;;;;12.43;11.32;;;11.90;99.90;;;;;;5079051;28;20537;-52
2022/10/01 06:08:52;;;;;;;13.40;12.20;;;11.90;99.90;;;;;;5079234;28;20051;-55
2022/10/01 06:11:21;;;;;;;12.68;11.52;;;11.90;99.90;;;;;;5061025;28;20057;-55
2022/10/01 06:13:50;;;;;;;15.25;13.80;;;11.90;99.90;;;;;;5047230;28;20070;-54
2022/10/01 06:16:16;;;;;;;13.52;12.13;;;11.90;99.90;;;;;;5073707;28;20475;-53
2022/10/01 06:18:42;;;;;;;14.00;12.60;;;12.00;99.90;;;;;;5047331;28;20075;-53
2022/10/01 06:21:09;;;;;;;15.55;14.15;;;12.00;99.90;;;;;;5044930;28;20060;-53
2022/10/01 06:23:35;;;;;;;15.65;14.25;;;12.10;99.90;;;;;;5061015;28;20499;-51
2022/10/01 06:26:04;;;;;;;14.57;13.35;;;12.10;99.90;;;;;;5080066;28;20504;-51
2022/10/01 06:28:31;;;;;;;18.08;16.23;;;12.10;99.90;;;;;;5060249;28;20055;-54
2022/10/01 06:31:01;;;;;;;18.02;15.82;;;12.10;99.90;;;;;;5078276;28;20044;-53
2022/10/01 06:33:27;;;;;;;17.45;15.73;;;12.20;99.90;;;;;;5053550;28;20044;-53
2022/10/01 06:35:54;;;;;;;18.45;15.82;;;12.20;99.90;;;;;;5060976;28;20473;-53
2022/10/01 06:38:22;;;;;;;19.38;17.40;;;12.30;99.90;;;;;;5060425;28;20040;-54
2022/10/01 06:40:59;;;;;;;17.65;16.13;;;12.30;99.90;;;;;;5061381;28;20055;-53
2022/10/01 06:43:27;;;;;;;19.33;17.50;;;12.30;99.90;;;;;;5060670;28;20056;-54
2022/10/01 06:45:53;;;;;;;18.45;16.75;;;12.40;99.90;;;;;;5045882;28;20048;-40
2022/10/01 06:48:20;;;;;;;18.73;17.02;;;12.40;99.90;;;;;;5079526;28;20052;-40
2022/10/01 06:50:48;;;;;;;17.90;16.27;;;12.50;99.90;;;;;;5081804;28;20051;-40
2022/10/01 06:53:16;;;;;;;18.95;17.08;;;12.50;99.90;;;;;;5077910;28;20047;-40
2022/10/01 06:55:43;;;;;;;19.23;17.35;;;12.60;99.90;;;;;;5059857;28;20080;-41
2022/10/01 06:58:19;;;;;;;17.20;15.60;;;12.60;99.90;;;;;;5074772;28;20048;-40
2022/10/01 07:00:49;;;;;;;18.13;15.32;;;12.60;99.90;;;;;;5050186;28;20055;-40
2022/10/01 07:03:18;;;;;;;15.57;13.98;;;12.70;99.90;;;;;;5073147;28;20067;-40
2022/10/01 07:05:46;;;;;;;16.23;14.65;;;12.70;99.90;;;;;;5064879;28;20099;-40
2022/10/01 07:08:12;;;;;;;15.75;14.20;;;12.70;99.90;;;;;;5040460;28;20044;-39
2022/10/01 07:11:01;;;;;;;16.98;15.45;;;12.80;99.90;;;;;;5106976;27;20425;-40
2022/10/01 07:13:27;;;;;;;16.15;14.50;;;12.80;99.90;;;;;;5083554;28;20443;-40
2022/10/01 07:15:53;;;;;;;17.23;15.55;;;12.90;99.90;;;;;;5090187;28;20050;-42
2022/10/01 07:18:19;;;;;;;16.23;14.38;;;13.10;99.90;;;;;;5069724;28;20135;-41
2022/10/01 07:20:45;;;;;;;16.38;14.60;;;13.20;99.90;;;;;;5082995;28;20067;-42
2022/10/01 07:23:13;;;;;;;14.98;13.60;;;13.30;99.90;;;;;;5083832;28;20070;-45
2022/10/01 07:25:41;;;;;;;13.35;11.95;;;13.30;99.90;;;;;;5076216;28;20048;-54
2022/10/01 07:28:15;;;;;;;16.02;11.18;;;13.30;99.90;;;;;;5091032;28;20048;-55
2022/10/01 07:31:05;;;;;;;16.02;12.02;;;13.30;99.90;;;;;;5051809;28;20052;-54
2022/10/01 07:33:32;;;;;;;16.30;10.90;;;13.30;99.90;;;;;;5086363;28;20106;-54
2022/10/01 07:36:03;;;;;;;12.85;10.45;;;13.30;99.90;;;;;;5081192;28;20039;-54
2022/10/01 07:38:29;;;;;;;13.75;11.52;;;13.30;99.90;;;;;;5086461;28;20046;-55
2022/10/01 07:40:57;;;;;;;14.63;11.60;;;13.20;99.90;;;;;;5089657;28;20040;-55
2022/10/01 07:43:24;;;;;;;14.65;11.20;;;13.20;99.90;;;;;;5084633;28;20052;-54
2022/10/01 07:45:53;;;;;;;13.95;12.68;;;13.20;99.90;;;;;;5083912;28;20574;-54
2022/10/01 07:48:19;;;;;;;16.23;12.45;;;13.20;99.90;;;;;;5085260;28;20040;-54
2022/10/01 07:50:46;;;;;;;15.48;12.65;;;13.40;99.90;;;;;;5068431;28;20056;-54
2022/10/01 07:53:12;;;;;;;17.92;14.95;;;13.50;99.90;;;;;;5070589;28;20092;-53
2022/10/01 07:55:38;;;;;;;12.85;11.55;;;13.70;99.90;;;;;;5053496;28;20755;-53
2022/10/01 07:58:05;;;;;;;12.90;11.43;;;13.90;99.90;;;;;;5084759;28;20135;-54
2022/10/01 08:00:32;;;;;;;18.90;12.30;;;13.90;99.90;;;;;;5087055;28;20043;-54
2022/10/01 08:02:58;;;;;;;15.25;10.20;;;14.10;99.90;;;;;;5063247;28;20048;-50
2022/10/01 08:05:28;;;;;;;13.68;9.07;;;14.40;99.90;;;;;;5091971;28;20043;-53
2022/10/01 08:08:01;;;;;;;9.77;6.53;;;15.00;99.90;;;;;;5084780;28;20126;-54
2022/10/01 08:10:27;;;;;;;9.40;5.50;;;15.50;99.90;;;;;;5088513;28;20052;-54
2022/10/01 08:13:07;;;;;;;10.85;5.50;;;15.90;99.90;;;;;;5080064;28;20044;-54
2022/10/01 08:15:33;;;;;;;10.40;5.75;;;16.40;99.90;;;;;;5083323;28;20048;-43
2022/10/01 08:18:03;;;;;;;7.22;4.30;;;16.70;99.90;;;;;;5065747;28;20044;-43
2022/10/01 08:20:30;;;;;;;6.22;3.78;;;17.00;99.90;;;;;;5082220;28;20040;-55
2022/10/01 08:23:09;;;;;;;7.78;3.28;;;17.40;99.90;;;;;;5073913;28;20046;-58
2022/10/01 08:25:36;;;;;;;11.35;3.35;;;17.70;99.90;;;;;;5075884;28;20110;-51
2022/10/01 08:28:02;;;;;;;10.13;3.00;;;18.00;99.90;;;;;;5073250;28;20143;-55
2022/10/01 08:30:29;;;;;;;7.00;2.42;;;18.30;99.90;;;;;;5071307;28;20083;-55
2022/10/01 08:32:56;;;;;;;9.18;2.30;;;18.70;99.90;;;;;;5071866;28;20509;-54
2022/10/01 08:35:23;;;;;;;7.65;2.67;;;19.00;99.90;;;;;;5043642;28;20155;-54
2022/10/01 08:37:50;;;;;;;12.55;3.25;;;19.30;99.90;;;;;;5040502;28;20486;-44
2022/10/01 08:40:19;;;;;;;10.57;2.42;;;19.50;99.90;;;;;;5069637;28;20052;-44
2022/10/01 08:43:06;;;;;;;10.00;2.10;;;18.90;99.90;;;;;;5063536;28;20056;-55
2022/10/01 08:45:37;;;;;;;7.75;2.03;;;18.30;99.90;;;;;;5069990;28;20055;-55
2022/10/01 08:48:30;;;;;;;10.85;2.75;;;18.10;99.90;;;;;;5069973;28;20047;-56
2022/10/01 08:51:03;;;;;;;13.63;2.65;;;18.30;99.90;;;;;;5077317;28;20052;-56
2022/10/01 08:53:38;;;;;;;11.10;2.10;;;18.50;99.90;;;;;;5074979;28;20040;-42
2022/10/01 08:56:07;;;;;;;10.32;2.03;;;18.60;99.90;;;;;;5070946;28;20224;-45
2022/10/01 08:58:45;;;;;;;8.43;2.30;;;18.80;99.90;;;;;;5074147;28;20052;-55
2022/10/01 09:01:11;;;;;;;8.38;1.70;;;19.30;99.90;;;;;;5068194;28;20044;-56
2022/10/01 09:03:39;;;;;;;10.38;2.20;;;19.10;99.90;;;;;;5036809;28;20047;-56
2022/10/01 09:06:25;;;;;;;7.75;1.80;;;18.60;99.90;;;;;;5068818;28;20090;-53
2022/10/01 09:09:55;;;;;;;9.55;2.42;;;18.00;99.90;;;;;;5073907;28;20075;-56
2022/10/01 09:12:45;;;;;;;7.03;1.95;;;17.50;99.90;;;;;;5004361;28;20053;-57
2022/10/01 09:15:20;;;;;;;10.20;2.00;;;17.00;99.90;;;;;;5031060;28;20058;-54
2022/10/01 09:18:11;;;;;;;7.45;2.05;;;16.80;99.90;;;;;;5064250;28;20188;-54
2022/10/01 09:20:57;;;;;;;9.07;2.83;;;16.80;99.90;;;;;;5073146;28;20052;-43
2022/10/01 09:23:55;;;;;;;7.35;2.20;;;16.80;99.90;;;;;;5066000;28;21086;-40
2022/10/01 09:26:22;;;;;;;8.00;2.13;;;16.80;99.90;;;;;;5047221;28;20040;-54
2022/10/01 09:28:51;;;;;;;10.85;2.88;;;17.70;99.90;;;;;;5068133;28;20450;-55
2022/10/01 09:31:38;;;;;;;5.13;1.65;;;18.70;99.90;;;;;;5074983;28;20044;-54
2022/10/01 09:34:13;;;;;;;4.38;1.20;;;19.00;99.90;;;;;;5070018;28;20851;-55
2022/10/01 09:37:13;;;;;;;6.22;1.17;;;18.90;99.90;;;;;;5071724;28;20399;-55
2022/10/01 09:39:51;;;;;;;5.72;1.30;;;19.50;99.90;;;;;;5070128;28;20144;-55
2022/10/01 09:42:17;;;;;;;4.05;1.08;;;20.20;99.90;;;;;;5068296;28;20044;-56
2022/10/01 09:44:46;;;;;;;3.63;0.90;;;20.80;99.90;;;;;;5062835;28;20128;-56
2022/10/01 09:47:17;;;;;;;3.83;1.08;;;21.30;99.90;;;;;;5073326;28;20059;-55
2022/10/01 09:49:44;;;;;;;3.78;0.88;;;21.40;99.90;;;;;;5072870;28;20059;-56
2022/10/01 09:52:27;;;;;;;4.68;1.33;;;20.30;99.90;;;;;;5073856;28;20048;-57
2022/10/01 09:54:59;;;;;;;7.15;1.10;;;19.80;99.90;;;;;;5076777;28;20056;-56
2022/10/01 09:57:35;;;;;;;7.95;2.22;;;18.90;99.90;;;;;;5049183;28;20141;-45
2022/10/01 10:00:10;;;;;;;5.63;1.50;;;18.20;99.90;;;;;;5091237;28;20537;-42
2022/10/01 10:02:41;;;;;;;8.65;1.30;;;17.20;99.90;;;;;;5056343;28;20459;-40
2022/10/01 10:05:24;;;;;;;7.18;1.55;;;16.70;99.90;;;;;;5043120;28;20045;-51
2022/10/01 10:07:54;;;;;;;6.22;1.25;;;16.20;99.90;;;;;;5054708;28;21242;-40
2022/10/01 10:10:38;;;;;;;4.50;1.27;;;15.70;99.90;;;;;;5072260;28;20109;-39
2022/10/01 10:13:04;;;;;;;5.60;1.23;;;15.50;99.90;;;;;;5074107;28;20101;-39
2022/10/01 10:15:31;;;;;;;3.40;0.88;;;15.30;99.90;;;;;;5067159;28;20803;-38
2022/10/01 10:18:07;;;;;;;5.10;1.35;;;15.30;99.90;;;;;;5073289;28;20550;-39
2022/10/01 10:20:40;;;;;;;5.45;1.27;;;15.50;99.90;;;;;;5073023;28;20089;-40
2022/10/01 10:23:20;;;;;;;6.93;1.42;;;15.90;99.90;;;;;;5068367;28;20601;-40
2022/10/01 10:26:06;;;;;;;6.65;1.40;;;16.40;99.90;;;;;;5064865;28;20551;-52
2022/10/01 10:28:41;;;;;;;8.10;1.95;;;16.90;99.90;;;;;;5057542;28;20380;-52
2022/10/01 10:31:15;;;;;;;6.20;1.25;;;17.10;99.90;;;;;;5067846;28;20086;-53
2022/10/01 10:33:56;;;;;;;6.03;1.50;;;17.00;99.90;;;;;;5074617;28;20052;-51
2022/10/01 10:36:27;;;;;;;6.45;1.33;;;17.10;99.90;;;;;;5051720;28;20542;-52
2022/10/01 10:38:54;;;;;;;6.07;1.55;;;17.00;99.90;;;;;;5075713;28;20055;-53
2022/10/01 10:41:25;;;;;;;8.73;1.65;;;16.80;99.90;;;;;;5045625;28;20044;-53
2022/10/01 10:43:55;;;;;;;7.28;1.88;;;16.50;99.90;;;;;;5025949;28;20060;-52
2022/10/01 10:46:28;;;;;;;7.85;2.70;;;16.30;99.90;;;;;;5056473;28;20048;-51
2022/10/01 10:49:04;;;;;;;8.77;2.28;;;16.00;99.90;;;;;;5050245;28;20048;-52
2022/10/01 10:51:48;;;;;;;11.88;2.95;;;15.40;99.90;;;;;;5075338;28;20050;-52
2022/10/01 10:54:31;;;;;;;9.43;2.40;;;14.90;99.90;;;;;;5066649;28;20040;-50
2022/10/01 10:57:01;;;;;;;6.32;1.58;;;14.50;99.90;;;;;;5071907;28;20048;-37
2022/10/01 10:59:32;;;;;;;4.88;0.88;;;13.90;99.90;;;;;;5085309;28;20537;-49
2022/10/01 11:02:04;;;;;;;4.13;1.50;;;13.70;99.90;;;;;;5067400;28;20424;-50
2022/10/01 11:04:38;;;;;;;6.20;1.88;;;13.50;99.90;;;;;;5074942;28;20090;-47
2022/10/01 11:07:10;;;;;;;7.03;1.38;;;13.40;99.90;;;;;;5068305;28;20056;-50
2022/10/01 11:09:55;;;;;;;6.63;1.48;;;13.30;99.90;;;;;;5075547;28;20056;-37
2022/10/01 11:12:55;;;;;;;7.15;1.52;;;13.30;99.90;;;;;;5072014;28;20773;-38
2022/10/01 11:15:21;;;;;;;5.75;1.50;;;13.40;99.90;;;;;;5061680;28;20070;-38
2022/10/01 11:17:50;;;;;;;7.85;1.77;;;13.50;99.90;;;;;;5062638;28;20053;-38
2022/10/01 11:20:34;;;;;;;6.75;1.65;;;13.70;99.90;;;;;;5070384;28;20140;-38
2022/10/01 11:23:14;;;;;;;6.20;1.92;;;13.80;99.90;;;;;;5068475;28;20056;-37
2022/10/01 11:25:50;;;;;;;7.80;2.05;;;13.90;99.90;;;;;;5069445;28;20407;-37
2022/10/01 11:28:37;;;;;;;9.80;1.83;;;14.00;99.90;;;;;;5068371;28;20040;-37
2022/10/01 11:31:15;;;;;;;6.00;2.30;;;14.10;99.90;;;;;;5073392;28;20055;-38
2022/10/01 11:33:47;;;;;;;6.00;1.60;;;14.30;99.90;;;;;;5069373;28;20052;-38
2022/10/01 11:36:36;;;;;;;8.05;1.50;;;14.80;99.90;;;;;;5075274;28;20143;-39
2022/10/01 11:39:12;;;;;;;8.18;1.80;;;15.50;99.90;;;;;;5070750;28;20100;-40
2022/10/01 11:42:05;;;;;;;5.13;1.75;;;16.30;99.90;;;;;;5070502;28;20075;-39
2022/10/01 11:45:10;;;;;;;7.32;1.58;;;17.60;99.90;;;;;;5069454;28;20049;-40
2022/10/01 11:47:42;;;;;;;5.68;1.70;;;18.90;99.90;;;;;;5023565;28;20059;-40
2022/10/01 11:50:29;;;;;;;5.43;1.52;;;20.00;99.90;;;;;;5072610;28;20047;-41
2022/10/01 11:53:15;;;;;;;9.95;3.50;;;20.60;99.90;;;;;;5066042;28;20044;-41
2022/10/01 11:58:49;;;;;;;8.20;1.60;;;20.70;99.90;;;;;;5077042;28;20402;-41
2022/10/01 12:01:38;;;;;;;8.40;1.98;;;20.80;99.90;;;;;;5077891;28;20039;-40
2022/10/01 12:04:30;;;;;;;8.18;1.65;;;21.10;99.90;;;;;;5067555;28;20270;-40
2022/10/01 12:07:15;;;;;;;;;;;21.80;99.90;;;;;;5078123;28;20561;-44
2022/10/01 12:09:56;;;;;;;7.55;2.10;;;21.70;99.90;;;;;;5071193;28;19953;-53
2022/10/01 12:12:29;;;;;;;8.20;1.95;;;22.00;99.90;;;;;;5035538;28;20096;-52
2022/10/01 12:15:15;;;;;;;6.40;1.42;;;22.40;99.90;;;;;;5075225;28;20585;-53
2022/10/01 12:18:05;;;;;;;10.32;2.35;;;23.00;99.90;;;;;;5069298;28;20075;-41
2022/10/01 12:20:46;;;;;;;11.82;2.00;;;22.40;99.90;;;;;;5073721;28;20123;-43
2022/10/01 12:23:53;;;;;;;10.73;3.88;;;21.70;99.90;;;;;;5069535;28;20056;-44
2022/10/01 12:26:47;;;;;;;8.32;2.30;;;20.30;99.90;;;;;;5069386;28;20537;-43
2022/10/01 12:29:28;;;;;;;9.93;2.15;;;19.30;99.90;;;;;;5076251;28;20052;-38
2022/10/01 12:32:27;;;;;;;12.60;3.65;;;18.10;99.90;;;;;;5069887;28;20044;-47
2022/10/01 12:35:17;;;;;;;11.70;2.65;;;17.30;99.90;;;;;;5058294;28;20048;-50
2022/10/01 12:38:28;;;;;;;10.68;2.90;;;16.70;99.90;;;;;;5072274;28;20056;-52
2022/10/01 12:41:07;;;;;;;8.18;2.45;;;16.20;99.90;;;;;;5074323;28;20663;-49
2022/10/01 12:44:04;;;;;;;11.48;3.17;;;16.10;99.90;;;;;;5089490;28;20084;-48
2022/10/01 12:46:36;;;;;;;11.07;2.50;;;16.00;99.90;;;;;;5073716;28;20744;-49
2022/10/01 12:49:29;;;;;;;13.05;2.67;;;15.90;99.90;;;;;;5071778;28;20091;-49
2022/10/01 12:52:30;;;;;;;13.07;2.35;;;15.80;99.90;;;;;;5073369;28;20044;-50
2022/10/01 12:55:21;;;;;;;9.18;2.65;;;15.80;99.90;;;;;;5056875;28;20126;-47
2022/10/01 12:58:16;;;;;;;13.50;4.07;;;15.80;99.90;;;;;;5058280;28;20056;-47
2022/10/01 13:00:59;;;;;;;16.73;10.07;;;15.80;99.90;;;;;;5069561;28;20079;-50
2022/10/01 13:03:40;;;;;;;12.65;4.63;;;16.50;99.90;;;;;;5071714;28;20044;-50
2022/10/01 13:06:25;;;;;;;12.98;3.38;;;16.90;99.90;;;;;;5072371;28;20048;-49
2022/10/01 13:09:20;;;;;;;12.93;2.78;;;16.80;99.90;;;;;;5072376;28;20059;-51